Time;durP1;ratioP1;P1;durP2;ratioP2;P2;SDS_P1;SDS_P2;PMS_P1;PMS_P2;Temp;Humidity;BMP_temperature;BMP_pressure;BME280_temperature;BME280_humidity;BME280_pressure;Samples;Min_cycle;Max_cycle;Signal;HPM_P1;HPM_P2
2023/11/08 00:00:51;;;;;;;2.75;0.80;;;8.80;99.90;;;;;;5055931;28;20043;-88
2023/11/08 00:03:16;;;;;;;2.78;0.70;;;8.80;99.90;;;;;;5056728;28;20051;-85
2023/11/08 00:05:42;;;;;;;2.40;0.60;;;8.80;99.90;;;;;;5056795;28;20021;-85
2023/11/08 00:08:08;;;;;;;1.83;0.65;;;8.80;99.90;;;;;;5056083;28;20147;-86
2023/11/08 00:10:37;;;;;;;3.88;0.70;;;8.80;99.90;;;;;;5056798;28;20021;-84
2023/11/08 00:13:02;;;;;;;4.63;0.80;;;8.80;99.90;;;;;;5056258;28;20032;-84
2023/11/08 00:15:28;;;;;;;4.82;1.02;;;8.80;99.90;;;;;;5056618;28;20025;-84
2023/11/08 00:17:54;;;;;;;1.92;0.82;;;8.80;99.90;;;;;;5056503;28;20027;-84
2023/11/08 00:20:20;;;;;;;3.35;1.00;;;8.80;99.90;;;;;;5056860;28;20117;-84
2023/11/08 00:22:46;;;;;;;3.90;0.88;;;8.70;99.90;;;;;;5056725;28;20033;-84
2023/11/08 00:25:12;;;;;;;21.38;7.30;;;8.70;99.90;;;;;;5055781;28;20484;-84
2023/11/08 00:27:37;;;;;;;3.67;1.50;;;8.70;99.90;;;;;;5056610;28;20029;-84
2023/11/08 00:30:06;;;;;;;3.63;1.20;;;8.60;99.90;;;;;;5056553;28;20079;-84
2023/11/08 00:32:32;;;;;;;2.90;0.98;;;8.60;99.90;;;;;;5056735;28;20087;-84
2023/11/08 00:34:58;;;;;;;5.22;1.20;;;8.60;99.90;;;;;;5056214;28;20029;-84
2023/11/08 00:37:24;;;;;;;4.85;0.93;;;8.60;99.90;;;;;;5056323;28;20024;-83
2023/11/08 00:39:50;;;;;;;3.25;0.90;;;8.60;99.90;;;;;;5056266;28;20053;-85
2023/11/08 00:42:16;;;;;;;1.67;0.80;;;8.60;99.90;;;;;;5056378;28;20117;-85
2023/11/08 00:44:42;;;;;;;3.78;1.02;;;8.60;99.90;;;;;;5055506;28;20075;-85
2023/11/08 00:47:08;;;;;;;1.30;0.70;;;8.60;99.90;;;;;;5055688;28;20033;-85
2023/11/08 00:49:34;;;;;;;2.78;0.82;;;8.60;99.90;;;;;;5055701;28;20021;-85
2023/11/08 00:52:00;;;;;;;1.92;0.70;;;8.60;99.90;;;;;;5055800;28;20036;-85
2023/11/08 00:54:29;;;;;;;3.25;0.90;;;8.60;99.90;;;;;;5056991;28;20017;-83
2023/11/08 00:56:55;;;;;;;3.08;0.90;;;8.50;99.90;;;;;;5055538;28;20032;-84
2023/11/08 00:59:21;;;;;;;6.95;1.42;;;8.60;99.90;;;;;;5056031;28;20029;-84
2023/11/08 01:01:47;;;;;;;5.03;1.00;;;8.60;99.90;;;;;;5055714;28;20036;-83
2023/11/08 01:04:13;;;;;;;2.83;0.90;;;8.60;99.90;;;;;;5056627;28;20082;-84
2023/11/08 01:06:39;;;;;;;2.92;0.80;;;8.50;99.90;;;;;;5055710;28;20397;-83
2023/11/08 01:09:07;;;;;;;3.25;1.20;;;8.50;99.90;;;;;;5068457;28;20051;-84
2023/11/08 01:11:33;;;;;;;1.73;0.80;;;8.50;99.90;;;;;;5076445;28;20093;-83
2023/11/08 01:13:59;;;;;;;4.25;1.10;;;8.50;99.90;;;;;;5058098;28;20467;-84
2023/11/08 01:16:24;;;;;;;4.22;0.88;;;8.50;99.90;;;;;;5058635;28;20024;-83
2023/11/08 01:18:50;;;;;;;2.55;0.57;;;8.50;99.90;;;;;;5058492;28;20059;-84
2023/11/08 01:21:16;;;;;;;4.43;0.90;;;8.50;99.90;;;;;;5075943;28;20020;-85
2023/11/08 01:23:41;;;;;;;2.97;1.00;;;8.50;99.90;;;;;;5058898;28;20029;-85
2023/11/08 01:26:08;;;;;;;2.45;0.68;;;8.40;99.90;;;;;;5058325;28;20028;-85
2023/11/08 01:28:33;;;;;;;4.90;0.73;;;8.50;99.90;;;;;;5058766;28;20445;-85
2023/11/08 01:30:59;;;;;;;3.15;0.93;;;8.50;99.90;;;;;;5057890;28;20082;-84
2023/11/08 01:33:25;;;;;;;3.47;0.82;;;8.50;99.90;;;;;;5076129;28;20031;-84
2023/11/08 01:35:50;;;;;;;2.97;0.88;;;8.50;99.90;;;;;;5058126;28;20052;-83
2023/11/08 01:38:16;;;;;;;2.63;0.75;;;8.50;99.90;;;;;;5058006;28;20017;-85
2023/11/08 01:40:43;;;;;;;3.92;0.63;;;8.40;99.90;;;;;;5058369;28;20366;-84
2023/11/08 01:43:09;;;;;;;2.20;0.80;;;8.50;99.90;;;;;;5075811;28;20503;-85
2023/11/08 01:45:34;;;;;;;3.17;0.80;;;8.50;99.90;;;;;;5058179;28;20021;-85
2023/11/08 01:48:01;;;;;;;4.20;0.80;;;8.50;99.90;;;;;;5075679;28;20031;-84
2023/11/08 01:50:27;;;;;;;3.28;1.15;;;8.50;99.90;;;;;;5058546;28;20095;-85
2023/11/08 01:52:52;;;;;;;2.53;1.00;;;8.50;99.90;;;;;;5058533;28;20032;-85
2023/11/08 01:55:18;;;;;;;2.83;0.85;;;8.50;99.90;;;;;;5056955;28;20154;-85
2023/11/08 01:57:44;;;;;;;1.70;0.77;;;8.50;99.90;;;;;;5075628;28;20054;-85
2023/11/08 02:00:14;;;;;;;4.32;0.90;;;8.50;99.90;;;;;;5057652;28;20457;-85
2023/11/08 02:02:40;;;;;;;2.63;0.60;;;8.50;99.90;;;;;;5075605;28;20454;-85
2023/11/08 02:05:07;;;;;;;2.05;0.63;;;8.50;99.90;;;;;;5057923;28;20035;-85
2023/11/08 02:07:32;;;;;;;3.88;0.60;;;8.50;99.90;;;;;;5057905;28;20115;-85
2023/11/08 02:09:58;;;;;;;5.97;0.82;;;8.50;99.90;;;;;;5057230;28;20072;-86
2023/11/08 02:12:23;;;;;;;1.65;0.60;;;8.40;99.90;;;;;;5058074;28;20031;-85
2023/11/08 02:15:03;;;;;;;2.90;0.70;;;8.50;99.90;;;;;;5058157;28;20062;-85
2023/11/08 02:17:29;;;;;;;2.08;0.65;;;8.40;99.90;;;;;;5057928;28;20027;-85
2023/11/08 02:19:55;;;;;;;3.35;0.65;;;8.40;99.90;;;;;;5057744;28;20020;-85
2023/11/08 02:22:21;;;;;;;2.00;0.75;;;8.50;99.90;;;;;;5057126;28;20025;-85
2023/11/08 02:24:46;;;;;;;2.10;0.63;;;8.40;99.90;;;;;;5057642;28;20107;-85
2023/11/08 02:27:12;;;;;;;4.97;1.10;;;8.50;99.90;;;;;;5057029;28;20025;-85
2023/11/08 02:29:37;;;;;;;5.22;0.70;;;8.50;99.90;;;;;;5057504;28;20024;-84
2023/11/08 02:32:03;;;;;;;1.92;0.70;;;8.50;99.90;;;;;;5056715;28;20029;-85
2023/11/08 02:34:29;;;;;;;4.22;0.85;;;8.50;99.90;;;;;;5075142;28;20395;-84
2023/11/08 02:36:54;;;;;;;1.08;0.65;;;8.60;99.90;;;;;;5057188;28;20024;-85
2023/11/08 02:39:20;;;;;;;2.45;0.63;;;8.60;99.90;;;;;;5056996;28;20483;-85
2023/11/08 02:41:50;;;;;;;1.70;0.65;;;8.60;99.90;;;;;;5057128;28;20021;-85
2023/11/08 02:44:17;;;;;;;2.47;0.60;;;8.60;99.90;;;;;;5056616;28;20123;-85
2023/11/08 02:46:44;;;;;;;2.05;0.80;;;8.60;99.90;;;;;;5057393;28;20073;-85
2023/11/08 02:49:11;;;;;;;3.58;0.90;;;8.70;99.90;;;;;;5073982;28;20031;-85
2023/11/08 02:51:36;;;;;;;2.60;0.70;;;8.70;99.90;;;;;;5074735;28;20103;-85
2023/11/08 02:54:02;;;;;;;1.95;0.80;;;8.70;99.90;;;;;;5056323;28;20465;-86
2023/11/08 02:56:27;;;;;;;1.77;0.80;;;8.80;99.90;;;;;;5057229;28;20016;-86
2023/11/08 02:58:56;;;;;;;3.42;0.70;;;8.80;99.90;;;;;;5057173;28;20051;-86
2023/11/08 03:01:22;;;;;;;2.00;0.70;;;8.80;99.90;;;;;;5056791;28;20036;-86
2023/11/08 03:03:49;;;;;;;2.05;0.93;;;8.80;99.90;;;;;;5056898;28;20024;-85
2023/11/08 03:06:15;;;;;;;1.23;0.57;;;8.80;99.90;;;;;;5056125;28;20150;-86
2023/11/08 03:08:41;;;;;;;4.22;0.95;;;8.80;99.90;;;;;;5056137;28;20070;-86
2023/11/08 03:11:06;;;;;;;2.67;0.73;;;8.80;99.90;;;;;;5056464;28;20028;-86
2023/11/08 03:13:32;;;;;;;3.75;0.70;;;8.80;99.90;;;;;;5056835;28;20044;-86
2023/11/08 03:15:58;;;;;;;3.10;0.85;;;8.80;99.90;;;;;;5056657;28;20020;-86
2023/11/08 03:18:24;;;;;;;2.25;0.70;;;8.90;99.90;;;;;;5055975;28;20465;-86
2023/11/08 03:20:50;;;;;;;3.53;0.90;;;8.80;99.90;;;;;;5056390;28;20031;-86
2023/11/08 03:23:16;;;;;;;5.95;0.90;;;8.90;99.90;;;;;;5056076;28;20091;-86
2023/11/08 03:25:42;;;;;;;1.55;0.70;;;8.90;99.90;;;;;;5056834;28;20020;-86
2023/11/08 03:28:09;;;;;;;4.65;0.98;;;8.90;99.90;;;;;;5055897;28;20017;-85
2023/11/08 03:30:36;;;;;;;3.17;0.85;;;8.90;99.90;;;;;;5074311;28;20013;-84
2023/11/08 03:33:02;;;;;;;3.05;0.88;;;8.90;99.90;;;;;;5055862;28;20503;-85
2023/11/08 03:35:27;;;;;;;2.25;1.25;;;9.00;99.90;;;;;;5056427;28;20025;-84
2023/11/08 03:37:55;;;;;;;2.30;0.70;;;9.00;99.90;;;;;;5056546;28;20071;-85
2023/11/08 03:40:20;;;;;;;4.38;1.13;;;9.00;99.90;;;;;;5055801;28;20442;-85
2023/11/08 03:42:46;;;;;;;2.63;0.70;;;9.00;99.90;;;;;;5073893;28;20031;-85
2023/11/08 03:45:12;;;;;;;2.65;0.77;;;9.00;99.90;;;;;;5055865;28;20068;-85
2023/11/08 03:47:38;;;;;;;3.65;0.80;;;9.00;99.90;;;;;;5056511;28;20024;-85
2023/11/08 03:50:05;;;;;;;3.45;1.10;;;9.00;99.90;;;;;;5055870;28;20047;-85
2023/11/08 03:52:31;;;;;;;2.90;0.80;;;9.00;99.90;;;;;;5055930;28;20499;-85
2023/11/08 03:54:57;;;;;;;3.17;1.20;;;9.00;99.90;;;;;;5056162;28;20020;-85
2023/11/08 03:57:23;;;;;;;3.60;0.90;;;9.00;99.90;;;;;;5056135;28;20427;-85
2023/11/08 03:59:49;;;;;;;6.05;1.00;;;9.00;99.90;;;;;;5056083;28;20017;-85
2023/11/08 04:02:17;;;;;;;1.48;0.60;;;9.00;99.90;;;;;;5073303;28;20476;-85
2023/11/08 04:04:44;;;;;;;2.60;0.70;;;9.00;99.90;;;;;;5055861;28;20029;-85
2023/11/08 04:07:10;;;;;;;2.55;0.88;;;9.00;99.90;;;;;;5055695;28;20051;-86
2023/11/08 04:09:36;;;;;;;1.15;0.60;;;9.00;99.90;;;;;;5056233;28;20037;-85
2023/11/08 04:12:01;;;;;;;3.63;0.80;;;9.00;99.90;;;;;;5056013;28;20036;-85
2023/11/08 04:14:27;;;;;;;2.67;0.98;;;9.00;99.90;;;;;;5055504;28;20408;-83
2023/11/08 04:16:54;;;;;;;3.20;0.70;;;9.00;99.90;;;;;;5056044;28;20027;-84
2023/11/08 04:19:19;;;;;;;2.08;0.73;;;8.90;99.90;;;;;;5057693;28;20021;-84
2023/11/08 04:21:45;;;;;;;3.72;0.70;;;8.90;99.90;;;;;;5059829;28;20040;-84
2023/11/08 04:24:11;;;;;;;3.15;0.80;;;8.90;99.90;;;;;;5059119;28;20468;-85
2023/11/08 04:26:37;;;;;;;3.28;0.70;;;8.90;99.90;;;;;;5059692;28;20020;-85
2023/11/08 04:29:02;;;;;;;1.80;0.70;;;8.90;99.90;;;;;;5059336;28;20448;-84
2023/11/08 04:31:28;;;;;;;4.57;0.65;;;8.90;99.90;;;;;;5059375;28;20028;-85
2023/11/08 04:33:53;;;;;;;2.47;0.98;;;8.90;99.90;;;;;;5060161;28;20020;-85
2023/11/08 04:36:19;;;;;;;5.38;2.00;;;8.90;99.90;;;;;;5059309;28;20158;-85
2023/11/08 04:38:45;;;;;;;4.53;0.85;;;8.90;99.90;;;;;;5059589;28;20449;-84
2023/11/08 04:41:17;;;;;;;2.13;0.50;;;8.90;99.90;;;;;;5058873;28;20376;-85
2023/11/08 04:43:43;;;;;;;1.83;1.00;;;8.90;99.90;;;;;;5059684;28;20032;-84
2023/11/08 04:46:11;;;;;;;4.28;0.82;;;8.90;99.90;;;;;;5076615;28;20361;-85
2023/11/08 04:48:40;;;;;;;3.38;0.90;;;8.90;99.90;;;;;;5076859;28;20024;-85
2023/11/08 04:51:06;;;;;;;4.07;0.90;;;8.90;99.90;;;;;;5058806;28;20028;-85
2023/11/08 04:53:32;;;;;;;4.93;1.15;;;8.90;99.90;;;;;;5059693;28;20465;-86
2023/11/08 04:55:57;;;;;;;2.63;0.70;;;8.90;99.90;;;;;;5059243;28;20023;-86
2023/11/08 04:58:23;;;;;;;0.80;0.60;;;8.90;99.90;;;;;;5059104;28;20021;-83
2023/11/08 05:00:49;;;;;;;5.82;0.73;;;8.80;99.90;;;;;;5059044;28;20415;-83
2023/11/08 05:03:15;;;;;;;1.98;0.63;;;8.90;99.90;;;;;;5058807;28;20029;-82
2023/11/08 05:05:41;;;;;;;3.28;0.68;;;8.90;99.90;;;;;;5059007;28;20025;-84
2023/11/08 05:08:06;;;;;;;2.35;0.93;;;8.90;99.90;;;;;;5058380;28;20051;-84
2023/11/08 05:10:32;;;;;;;3.00;1.00;;;8.80;99.90;;;;;;5058927;28;20119;-84
2023/11/08 05:13:00;;;;;;;1.25;0.57;;;8.90;99.90;;;;;;5058696;28;20365;-84
2023/11/08 05:15:26;;;;;;;2.78;0.73;;;8.90;99.90;;;;;;5058475;28;20116;-84
2023/11/08 05:17:51;;;;;;;4.30;0.70;;;8.80;99.90;;;;;;5058793;28;20060;-84
2023/11/08 05:20:17;;;;;;;3.55;0.60;;;8.80;99.90;;;;;;5058427;28;20461;-83
2023/11/08 05:22:43;;;;;;;4.25;1.30;;;8.80;99.90;;;;;;5058652;28;20108;-84
2023/11/08 05:25:09;;;;;;;4.13;0.95;;;8.80;99.90;;;;;;5058239;28;20086;-84
2023/11/08 05:27:35;;;;;;;2.00;0.80;;;8.80;99.90;;;;;;5058630;28;20523;-83
2023/11/08 05:30:02;;;;;;;2.63;0.82;;;8.80;99.90;;;;;;5057143;28;20051;-84
2023/11/08 05:32:28;;;;;;;2.58;0.80;;;8.80;99.90;;;;;;5075371;28;20472;-85
2023/11/08 05:34:56;;;;;;;2.63;0.75;;;8.80;99.90;;;;;;5058619;28;20021;-85
2023/11/08 05:37:22;;;;;;;2.10;0.68;;;8.80;99.90;;;;;;5057927;28;20143;-84
2023/11/08 05:39:47;;;;;;;1.98;0.75;;;8.80;99.90;;;;;;5058586;28;20021;-84
2023/11/08 05:42:13;;;;;;;4.00;1.10;;;8.70;99.90;;;;;;5058025;28;20029;-85
2023/11/08 05:44:42;;;;;;;1.45;0.68;;;8.80;99.90;;;;;;5058880;28;20119;-84
2023/11/08 05:47:07;;;;;;;4.70;1.23;;;8.70;99.90;;;;;;5058651;28;20406;-84
2023/11/08 05:49:33;;;;;;;2.47;0.70;;;8.80;99.90;;;;;;5057991;28;20016;-85
2023/11/08 05:51:59;;;;;;;2.92;0.70;;;8.80;99.90;;;;;;5058037;28;20095;-84
2023/11/08 05:54:25;;;;;;;5.03;0.90;;;8.80;99.90;;;;;;5057686;28;20074;-85
2023/11/08 05:56:52;;;;;;;6.25;1.25;;;8.80;99.90;;;;;;5075751;28;20021;-85
2023/11/08 05:59:18;;;;;;;3.25;1.40;;;8.80;99.90;;;;;;5057414;28;20075;-86
2023/11/08 06:01:44;;;;;;;5.32;1.25;;;8.80;99.90;;;;;;5057720;28;20445;-86
2023/11/08 06:04:09;;;;;;;4.82;1.13;;;8.80;99.90;;;;;;5057737;28;20067;-86
2023/11/08 06:06:38;;;;;;;6.60;1.20;;;8.70;99.90;;;;;;5058311;28;20075;-85
2023/11/08 06:09:04;;;;;;;1.35;0.80;;;8.70;99.90;;;;;;5057542;28;20048;-84
2023/11/08 06:11:31;;;;;;;6.15;0.93;;;8.70;99.90;;;;;;5074825;28;20036;-85
2023/11/08 06:13:56;;;;;;;3.40;1.00;;;8.70;99.90;;;;;;5057965;28;20016;-85
2023/11/08 06:16:22;;;;;;;3.65;1.02;;;8.70;99.90;;;;;;5057343;28;20020;-85
2023/11/08 06:18:48;;;;;;;3.00;1.00;;;8.70;99.90;;;;;;5057736;28;20043;-85
2023/11/08 06:21:14;;;;;;;4.00;0.95;;;8.70;99.90;;;;;;5057198;28;20372;-84
2023/11/08 06:23:40;;;;;;;2.30;0.90;;;8.60;99.90;;;;;;5057248;28;20035;-85
2023/11/08 06:26:05;;;;;;;1.98;0.90;;;8.60;99.90;;;;;;5057443;28;20016;-85
2023/11/08 06:28:31;;;;;;;1.27;0.60;;;8.60;99.90;;;;;;5057013;28;20024;-84
2023/11/08 06:30:58;;;;;;;3.13;0.82;;;8.70;99.90;;;;;;5075047;28;20416;-85
2023/11/08 06:33:23;;;;;;;1.98;0.98;;;8.70;99.90;;;;;;5074628;28;20025;-84
2023/11/08 06:35:49;;;;;;;1.92;0.90;;;8.70;99.90;;;;;;5057428;28;20016;-84
2023/11/08 06:38:15;;;;;;;4.20;1.13;;;8.70;99.90;;;;;;5056749;28;20484;-85
2023/11/08 06:40:41;;;;;;;3.97;1.20;;;8.80;99.90;;;;;;5057045;28;20016;-85
2023/11/08 06:43:06;;;;;;;5.55;1.67;;;8.80;99.90;;;;;;5056985;28;20509;-85
2023/11/08 06:45:32;;;;;;;5.60;1.50;;;8.90;99.90;;;;;;5056788;28;20054;-85
2023/11/08 06:47:58;;;;;;;5.07;1.60;;;8.90;99.90;;;;;;5074588;28;20024;-84
2023/11/08 06:50:24;;;;;;;9.52;1.60;;;8.90;99.90;;;;;;5056679;28;20460;-85
2023/11/08 06:52:49;;;;;;;4.55;1.60;;;8.90;99.90;;;;;;5056827;28;20025;-85
2023/11/08 06:55:16;;;;;;;3.88;1.10;;;9.00;99.90;;;;;;5074143;28;20028;-86
2023/11/08 06:57:42;;;;;;;4.35;1.42;;;9.00;99.90;;;;;;5056869;28;20020;-85
2023/11/08 07:00:11;;;;;;;2.45;1.00;;;9.00;99.90;;;;;;5057033;28;20039;-85
2023/11/08 07:02:37;;;;;;;2.45;1.00;;;9.00;99.90;;;;;;5055818;28;20029;-85
2023/11/08 07:05:02;;;;;;;1.73;0.93;;;9.00;99.90;;;;;;5056909;28;20086;-84
2023/11/08 07:07:28;;;;;;;5.70;1.25;;;9.00;99.90;;;;;;5056426;28;20017;-85
2023/11/08 07:09:54;;;;;;;5.10;1.45;;;9.00;99.90;;;;;;5056760;28;20063;-84
2023/11/08 07:12:19;;;;;;;2.65;1.10;;;9.10;99.90;;;;;;5056285;28;20032;-85
2023/11/08 07:14:46;;;;;;;4.38;1.10;;;9.10;99.90;;;;;;5056368;28;20056;-86
2023/11/08 07:17:12;;;;;;;2.08;0.85;;;9.10;99.90;;;;;;5056301;28;20528;-86
2023/11/08 07:19:38;;;;;;;5.82;1.05;;;9.10;99.90;;;;;;5056421;28;20361;-86
2023/11/08 07:22:03;;;;;;;2.75;0.90;;;9.10;99.90;;;;;;5056505;28;20021;-86
2023/11/08 07:24:29;;;;;;;5.20;1.25;;;9.10;99.90;;;;;;5056301;28;20074;-86
2023/11/08 07:26:55;;;;;;;3.72;0.98;;;9.10;99.90;;;;;;5056574;28;20553;-85
2023/11/08 07:29:22;;;;;;;6.32;0.98;;;9.10;99.90;;;;;;5055958;28;20032;-86
2023/11/08 07:31:51;;;;;;;4.72;1.00;;;9.20;99.90;;;;;;5056536;28;20462;-85
2023/11/08 07:34:21;;;;;;;3.15;1.00;;;9.20;99.90;;;;;;5072226;28;20025;-87
2023/11/08 07:36:48;;;;;;;4.70;1.10;;;9.30;99.90;;;;;;5042765;28;20036;-87
2023/11/08 07:39:15;;;;;;;1.88;0.85;;;9.30;99.90;;;;;;5047512;28;20055;-87
2023/11/08 07:41:43;;;;;;;1.83;0.90;;;9.30;99.90;;;;;;5045947;28;20025;-86
2023/11/08 07:44:09;;;;;;;4.30;0.90;;;9.30;99.90;;;;;;5044408;28;20466;-85
2023/11/08 07:46:36;;;;;;;2.70;0.77;;;9.30;99.90;;;;;;5045818;28;20036;-86
2023/11/08 07:49:01;;;;;;;3.55;1.10;;;9.30;99.90;;;;;;5046354;28;20016;-86
2023/11/08 07:51:27;;;;;;;3.88;1.00;;;9.30;99.90;;;;;;5043943;28;20024;-86
2023/11/08 07:53:56;;;;;;;5.60;1.20;;;9.40;99.90;;;;;;5047186;28;20364;-86
2023/11/08 07:56:22;;;;;;;3.95;1.15;;;9.40;99.90;;;;;;5066934;28;20012;-86
2023/11/08 07:58:48;;;;;;;3.00;0.80;;;9.40;99.90;;;;;;5051429;28;20024;-85
2023/11/08 08:01:14;;;;;;;1.45;0.80;;;9.40;99.90;;;;;;5051826;28;20024;-85
2023/11/08 08:03:40;;;;;;;3.75;0.80;;;9.40;99.90;;;;;;5050625;28;20021;-86
2023/11/08 08:06:06;;;;;;;2.92;0.93;;;9.40;99.90;;;;;;5048589;28;20016;-85
2023/11/08 08:08:31;;;;;;;4.50;0.88;;;9.40;99.90;;;;;;5049344;28;20451;-86
2023/11/08 08:10:57;;;;;;;2.13;1.00;;;9.50;99.90;;;;;;5050190;28;20017;-84
2023/11/08 08:13:23;;;;;;;3.20;0.90;;;9.40;99.90;;;;;;5065830;28;20036;-85
2023/11/08 08:15:48;;;;;;;4.53;1.00;;;9.40;99.90;;;;;;5068330;28;20017;-85
2023/11/08 08:18:14;;;;;;;2.67;0.70;;;9.40;99.90;;;;;;5065676;28;20024;-85
2023/11/08 08:20:40;;;;;;;1.48;0.77;;;9.50;99.90;;;;;;5049992;28;20472;-86
2023/11/08 08:23:09;;;;;;;3.90;0.98;;;9.50;99.90;;;;;;5074903;28;20025;-85
2023/11/08 08:25:42;;;;;;;4.30;1.02;;;9.60;99.90;;;;;;5050668;28;20488;-85
2023/11/08 08:28:08;;;;;;;2.85;0.80;;;9.70;99.90;;;;;;5047862;28;20067;-84
2023/11/08 08:30:34;;;;;;;3.45;0.85;;;9.70;99.90;;;;;;5064212;28;20074;-86
2023/11/08 08:33:01;;;;;;;1.25;0.85;;;9.70;99.90;;;;;;5050355;28;20021;-85
2023/11/08 08:35:31;;;;;;;4.40;1.35;;;9.80;99.90;;;;;;5046028;28;20393;-86
2023/11/08 08:37:58;;;;;;;2.00;0.93;;;9.80;99.90;;;;;;5068440;28;20017;-87
2023/11/08 08:40:24;;;;;;;2.40;0.88;;;9.80;99.90;;;;;;5059161;28;20028;-85
2023/11/08 08:42:50;;;;;;;4.07;1.00;;;9.90;99.90;;;;;;5047165;28;20039;-85
2023/11/08 08:45:16;;;;;;;4.57;0.90;;;9.90;99.90;;;;;;5041942;28;20028;-84
2023/11/08 08:47:42;;;;;;;4.35;1.10;;;9.90;99.90;;;;;;5039226;28;20461;-85
2023/11/08 08:50:12;;;;;;;2.10;0.60;;;9.90;99.90;;;;;;5039075;28;20029;-83
2023/11/08 08:52:45;;;;;;;3.90;0.82;;;9.90;99.90;;;;;;5052729;28;20280;-84
2023/11/08 08:55:14;;;;;;;1.77;0.77;;;9.90;99.90;;;;;;5056185;28;20021;-87
2023/11/08 08:57:46;;;;;;;1.23;0.75;;;9.90;99.90;;;;;;5052527;28;20025;-86
2023/11/08 09:00:16;;;;;;;4.25;1.20;;;9.90;99.90;;;;;;5047353;28;20342;-85
2023/11/08 09:02:43;;;;;;;3.17;1.00;;;9.90;99.90;;;;;;5046878;28;20029;-86
2023/11/08 09:05:09;;;;;;;1.10;0.90;;;10.00;99.90;;;;;;5045935;28;20021;-86
2023/11/08 09:07:35;;;;;;;3.97;1.05;;;10.00;99.90;;;;;;5049247;28;20019;-86
2023/11/08 09:10:01;;;;;;;3.42;0.75;;;10.00;99.90;;;;;;5048347;28;20028;-88
2023/11/08 09:12:26;;;;;;;3.97;1.10;;;10.00;99.90;;;;;;5047187;28;20025;-84
2023/11/08 09:14:52;;;;;;;1.27;0.50;;;10.00;99.90;;;;;;5056120;28;20028;-85
2023/11/08 09:17:19;;;;;;;1.35;0.73;;;10.10;99.90;;;;;;5056540;28;20021;-85
2023/11/08 09:19:45;;;;;;;3.80;0.98;;;10.10;99.90;;;;;;5072774;28;20031;-84
2023/11/08 09:22:11;;;;;;;2.83;0.60;;;10.20;99.90;;;;;;5049231;28;20107;-88
2023/11/08 09:24:37;;;;;;;2.60;0.68;;;10.20;99.90;;;;;;5055189;28;20036;-89
2023/11/08 09:27:03;;;;;;;8.10;1.30;;;10.20;99.90;;;;;;5054621;28;20032;-85
2023/11/08 09:29:29;;;;;;;1.30;0.68;;;10.20;99.90;;;;;;5065583;28;20450;-88
2023/11/08 09:31:56;;;;;;;2.15;0.80;;;10.20;99.90;;;;;;5038099;28;20031;-89
2023/11/08 09:34:22;;;;;;;1.77;0.80;;;10.20;99.90;;;;;;5053601;28;20020;-88
2023/11/08 09:36:49;;;;;;;4.10;1.05;;;10.10;99.90;;;;;;5041730;28;20020;-83
2023/11/08 09:39:16;;;;;;;1.67;0.75;;;10.10;99.90;;;;;;5051095;28;20025;-84
2023/11/08 09:41:43;;;;;;;2.25;0.90;;;10.10;99.90;;;;;;5045995;28;20029;-89
2023/11/08 09:44:11;;;;;;;3.33;1.20;;;10.00;99.90;;;;;;5037887;28;20049;-86
2023/11/08 09:46:37;;;;;;;1.67;0.80;;;10.10;99.90;;;;;;5054171;28;20028;-89
2023/11/08 09:49:03;;;;;;;2.67;0.82;;;10.20;99.90;;;;;;5039661;28;20017;-90
2023/11/08 09:51:30;;;;;;;2.60;0.77;;;10.20;99.90;;;;;;5045940;28;20364;-86
2023/11/08 09:53:56;;;;;;;1.65;1.08;;;10.20;99.90;;;;;;5045238;28;20032;-86
2023/11/08 09:56:24;;;;;;;2.10;0.80;;;10.10;99.90;;;;;;5053563;28;20064;-88
2023/11/08 09:58:50;;;;;;;1.33;0.70;;;10.10;99.90;;;;;;5049851;28;20025;-87
2023/11/08 10:01:17;;;;;;;2.95;0.60;;;10.20;99.90;;;;;;5075543;28;20037;-83
2023/11/08 10:03:43;;;;;;;1.38;0.70;;;10.20;99.90;;;;;;5071605;28;20028;-88
2023/11/08 10:06:09;;;;;;;1.45;0.70;;;10.20;99.90;;;;;;5046898;28;20384;-88
2023/11/08 10:08:35;;;;;;;2.88;0.95;;;10.30;99.90;;;;;;5063339;28;20073;-88
2023/11/08 10:11:02;;;;;;;1.83;0.65;;;10.30;99.90;;;;;;5054547;28;20083;-90
2023/11/08 10:13:48;;;;;;;3.72;0.80;;;10.40;99.90;;;;;;5037045;28;20111;-89
2023/11/08 10:16:15;;;;;;;3.17;1.08;;;10.50;99.90;;;;;;5049216;28;20020;-89
2023/11/08 10:18:41;;;;;;;3.03;0.65;;;10.60;99.90;;;;;;5071149;28;20147;-89
2023/11/08 10:21:16;;;;;;;2.38;0.90;;;10.70;99.90;;;;;;5042715;28;20028;-89
2023/11/08 10:23:42;;;;;;;4.57;0.80;;;10.80;99.90;;;;;;5057343;28;20029;-90
2023/11/08 10:26:19;;;;;;;2.10;0.90;;;10.90;99.90;;;;;;5055186;28;20031;-85
2023/11/08 10:29:05;;;;;;;3.72;0.70;;;10.90;99.90;;;;;;5043433;28;20365;-86
2023/11/08 10:31:39;;;;;;;4.00;0.60;;;10.90;99.90;;;;;;5039881;28;20033;-88
2023/11/08 10:34:06;;;;;;;4.03;0.70;;;10.90;99.90;;;;;;5053605;28;20352;-88
2023/11/08 10:36:33;;;;;;;1.42;0.68;;;11.00;99.90;;;;;;5055429;28;20449;-86
2023/11/08 10:38:59;;;;;;;2.80;0.80;;;11.00;99.90;;;;;;5041401;28;20466;-86
2023/11/08 10:41:25;;;;;;;2.38;0.60;;;10.90;99.90;;;;;;5048369;28;20053;-86
2023/11/08 10:44:07;;;;;;;1.90;0.80;;;11.00;99.90;;;;;;5048394;28;20117;-84
2023/11/08 10:46:34;;;;;;;5.10;1.05;;;11.00;99.90;;;;;;5056282;28;20020;-86
2023/11/08 10:49:01;;;;;;;1.10;0.50;;;10.90;99.90;;;;;;5040784;28;20633;-86
2023/11/08 10:51:27;;;;;;;2.97;0.80;;;11.00;99.90;;;;;;5047359;28;20023;-87
2023/11/08 10:53:55;;;;;;;2.63;0.60;;;11.00;99.90;;;;;;5045515;28;20028;-87
2023/11/08 10:56:23;;;;;;;5.70;0.80;;;11.10;99.90;;;;;;5043276;28;20028;-87
2023/11/08 10:58:50;;;;;;;1.65;0.77;;;11.30;99.90;;;;;;5049995;28;20545;-89
2023/11/08 11:01:19;;;;;;;1.13;0.35;;;11.40;99.90;;;;;;5045830;28;20076;-86
2023/11/08 11:03:48;;;;;;;1.38;0.63;;;11.40;99.90;;;;;;5045129;28;20025;-88
2023/11/08 11:06:14;;;;;;;1.58;0.85;;;11.40;99.90;;;;;;5049299;28;20020;-88
2023/11/08 11:08:44;;;;;;;3.67;0.60;;;11.40;99.90;;;;;;5065500;28;20055;-90
2023/11/08 11:11:10;;;;;;;0.88;0.40;;;11.50;99.90;;;;;;5049720;28;20032;-88
2023/11/08 11:13:49;;;;;;;1.17;0.30;;;11.50;99.90;;;;;;5047620;28;20038;-88
2023/11/08 11:16:29;;;;;;;1.13;0.40;;;11.50;99.90;;;;;;5073726;28;20032;-89
2023/11/08 11:19:01;;;;;;;0.98;0.30;;;11.50;99.90;;;;;;5055909;28;20021;-92
2023/11/08 11:21:49;;;;;;;1.83;0.20;;;11.50;99.90;;;;;;5055391;28;20111;-88
2023/11/08 11:24:32;;;;;;;2.45;0.30;;;11.60;99.90;;;;;;5073824;28;20097;-88
2023/11/08 11:26:59;;;;;;;2.53;0.45;;;11.50;99.90;;;;;;5036632;28;20112;-89
2023/11/08 11:29:29;;;;;;;0.47;0.20;;;11.60;99.90;;;;;;5043120;28;20074;-88
2023/11/08 11:31:55;;;;;;;1.27;0.85;;;11.60;99.90;;;;;;5046805;28;20524;-87
2023/11/08 11:34:29;;;;;;;2.15;0.20;;;11.60;99.90;;;;;;5037116;28;20024;-87
2023/11/08 11:37:18;;;;;;;1.95;0.40;;;11.60;99.90;;;;;;5053887;28;20017;-87
2023/11/08 11:40:06;;;;;;;1.42;0.35;;;11.60;99.90;;;;;;5043952;28;20029;-87
2023/11/08 11:42:31;;;;;;;1.50;0.55;;;11.70;99.90;;;;;;5036072;28;20032;-85
2023/11/08 11:44:59;;;;;;;0.50;0.30;;;11.80;99.90;;;;;;5051087;28;20021;-89
2023/11/08 11:47:36;;;;;;;1.30;0.35;;;11.90;99.90;;;;;;5043645;28;20021;-88
2023/11/08 11:50:04;;;;;;;0.85;0.30;;;12.00;99.90;;;;;;5055794;28;20016;-89
2023/11/08 11:52:32;;;;;;;1.00;0.30;;;12.10;99.90;;;;;;5054209;28;20044;-88
2023/11/08 11:54:59;;;;;;;0.98;0.30;;;12.20;99.90;;;;;;5038286;28;20017;-87
2023/11/08 11:57:26;;;;;;;1.42;0.30;;;12.30;99.90;;;;;;5058661;28;20086;-87
2023/11/08 11:59:55;;;;;;;1.27;0.30;;;12.30;99.90;;;;;;5037135;28;20535;-90
2023/11/08 12:02:21;;;;;;;0.80;0.30;;;12.40;99.90;;;;;;5051055;28;20035;-90
2023/11/08 12:04:48;;;;;;;0.77;0.30;;;12.40;99.90;;;;;;5052453;28;20036;-88
2023/11/08 12:07:15;;;;;;;0.75;0.30;;;12.50;99.90;;;;;;5042037;28;20048;-89
2023/11/08 12:09:41;;;;;;;2.05;0.20;;;12.50;99.90;;;;;;5044240;28;20045;-89
2023/11/08 12:12:08;;;;;;;1.42;0.20;;;12.40;99.90;;;;;;5053500;28;20025;-90
2023/11/08 12:14:35;;;;;;;1.00;0.40;;;12.40;99.90;;;;;;5050864;28;20021;-87
2023/11/08 12:17:03;;;;;;;1.65;0.50;;;12.40;99.90;;;;;;5039988;28;20335;-89
2023/11/08 12:19:30;;;;;;;1.20;0.30;;;12.40;99.90;;;;;;5034384;28;20069;-89
2023/11/08 12:21:56;;;;;;;2.47;0.20;;;12.30;99.90;;;;;;5064956;28;20103;-91
2023/11/08 12:24:22;;;;;;;1.92;0.45;;;12.40;99.90;;;;;;5050101;28;20136;-90
2023/11/08 12:26:48;;;;;;;1.50;0.30;;;12.40;99.90;;;;;;5052223;28;20036;-87
2023/11/08 12:29:16;;;;;;;1.20;0.30;;;12.40;99.90;;;;;;5041705;28;20025;-92
2023/11/08 12:31:44;;;;;;;1.95;0.50;;;12.40;99.90;;;;;;5055061;28;20047;-91
2023/11/08 12:34:10;;;;;;;6.95;0.45;;;12.40;99.90;;;;;;5041183;28;20086;-90
2023/11/08 12:36:39;;;;;;;2.17;0.50;;;12.50;99.90;;;;;;5037618;28;20024;-93
2023/11/08 12:39:13;;;;;;;1.23;0.20;;;12.50;99.90;;;;;;5035572;28;20032;-91
2023/11/08 12:41:46;;;;;;;0.80;0.47;;;12.40;99.90;;;;;;5044255;28;20036;-92
2023/11/08 12:44:14;;;;;;;0.70;0.28;;;12.40;99.90;;;;;;5039039;28;20079;-91
2023/11/08 12:46:53;;;;;;;0.85;0.30;;;12.40;99.90;;;;;;5053996;28;20448;-90
2023/11/08 12:49:27;;;;;;;0.88;0.20;;;12.40;99.90;;;;;;5063472;28;20021;-90
2023/11/08 12:51:54;;;;;;;1.70;0.20;;;12.30;99.90;;;;;;5053214;28;20067;-92